CheckWX is a tool to help pilots better visualize weather data.  It is not intended as a substitute for an official pre-flight weather briefing.

19:05:41 UTC

CYBL METAR
Campbell River Airport
Campbell River, , Canada
Current

15 mins ago

CYBL 191851Z 32002KT 2SM -SN SCT013 BKN020 OVC028 00/M00 A3009 RMK SN3SC1SC2SC2 SLP196
Observed
Feb-19 @ 18:51 UTC
Wind
  • 320° at 2 KTS
Visibility
2 SM
Flight Rules
IFR
Conditions
Light Snow
Cloud Levels
  • Scattered at 1,300' AGL
  • Broken at 2,000' AGL
  • Overcast at 2,800' AGL
Temperature
C / 32°F
Dewpoint
C / 32°F
Humidity
100%
Altimeter
30.09" Hg
Pressure
1019.6 hPa
Previous

50 mins ago

CYBL 191816Z 31005KT 1 1/2SM -SN BKN014 OVC022 00/M01 A3011 RMK SN4SC2SC2 SLP201
Observed
Feb-19 @ 18:16 UTC
Wind
  • 310° at 5 KTS
Visibility
1 1/2 SM
Flight Rules
IFR
Conditions
Light Snow
Cloud Levels
  • Broken at 1,400' AGL
  • Overcast at 2,200' AGL
Temperature
C / 32°F
Dewpoint
-1°C / 30°F
Humidity
93%
Altimeter
30.11" Hg
Pressure
1020.1 hPa
Previous

1 hour ago

CYBL 191745Z 33003KT 1 1/2SM -SN BKN024 OVC030 00/M01 A3012 RMK SC6SC2 SLP205
Observed
Feb-19 @ 17:45 UTC
Wind
  • 330° at 3 KTS
Visibility
1 1/2 SM
Flight Rules
IFR
Conditions
Light Snow
Cloud Levels
  • Broken at 2,400' AGL
  • Overcast at 3,000' AGL
Temperature
C / 32°F
Dewpoint
-1°C / 30°F
Humidity
93%
Altimeter
30.12" Hg
Pressure
1020.5 hPa